Minnetonka, MN (55345)

1:06 PM CDT on July 05, 2015 (GMT -0500)
KMNMINNE7 | | Change Station
CLOSE
Current Station
Personal Weather Station
Location: Minnetonka, MN
Elevation: 1000 ft
Nearby Weather Stations

Elev 1000 ft 44.92 °N, 93.47 °W | Updated 11 minutes ago

Clear
Clear
79.9 °F
Feels Like 84 °F
N
1.0
Wind Variable Wind from SW
Gusts 10.0 mph

Today
High -- | Low -- °F
--% Chance of Precip.
Yesterday
High -- | Low -- °F
Precip. -- in
5:33 AM 9:02 PM
Waning Gibbous, 83% visible
Pressure 29.86 in
Visibility 9.0 miles
Clouds Clear
Heat Index 84 °F
Dew Point 74 °F
Humidity 83%
Rainfall -999.00 in
Snow Depth Not available.
UV 11 out of 12
Pollen 3.30 out of 12
Air Quality Not available.
Flu Activity Not available.
METAR KFCM 051753Z 19011KT 9SM CLR 29/21 A2987 RMK AO2 SLP111 T02890206 10289 20194 55010

More Conditions Fewer Conditions

Pressure 29.86 in
Visibility 9.0 miles
Clouds Clear
Heat Index 84 °F
Dew Point 74 °F
Humidity 83%
Rainfall -999.00 in
Snow Depth Not available.
UV 11 out of 12
Pollen 3.30 out of 12
Air Quality Not available.
Flu Activity Not available.
METAR KFCM 051753Z 19011KT 9SM CLR 29/21 A2987 RMK AO2 SLP111 T02890206 10289 20194 55010

More Conditions Fewer Conditions

10-Day Weather Forecast

×

Almanac

Astronomy

Jul. 05, 2015 Rise Set
Actual Time
Civil Twilight
Nautical Twilight
Astronomical Twilight
Moon
Length of Visible Light
Length of Day
Tomorrow will be .
, % of the Moon is Illuminated

Today's Extremes

State Highs State Lows

Community

WunderPhotos

Upload Photos

1,835,327 photos uploaded!

WunderBlogs® & News

Nearby

Air Quality

  Air Quality AQ Index Pollutant
Not available.

Snow Depth

Station Depth Elevation

Earthquake Activity

City Distance Mag. Time & Date
Minimum magnitude displayed is 2.5.

Coastal Water Temperatures

Place Temperature

Stations

Nearby Weather Stations

Station Location Temp. Windchill Dew Point Humidity Wind Precip. Elev Updated Type